Time;durP1;ratioP1;P1;durP2;ratioP2;P2;SDS_P1;SDS_P2;PMS_P1;PMS_P2;Temp;Humidity;BMP_temperature;BMP_pressure;BME280_temperature;BME280_humidity;BME280_pressure;Samples;Min_cycle;Max_cycle;Signal;HPM_P1;HPM_P2
2021/04/12 00:01:11;;;;;;;0.98;0.30;;;7.40;99.90;;;;;;5068855;28;20036;-85
2021/04/12 00:03:59;;;;;;;1.08;0.10;;;7.50;99.90;;;;;;5064826;28;20568;-85
2021/04/12 00:07:04;;;;;;;0.68;0.10;;;7.50;99.90;;;;;;5069497;28;20603;-85
2021/04/12 00:09:38;;;;;;;0.50;0.10;;;7.50;99.90;;;;;;5030404;28;20036;-84
2021/04/12 00:12:11;;;;;;;0.75;0.10;;;7.40;99.90;;;;;;5065253;28;20052;-85
2021/04/12 00:14:47;;;;;;;0.65;0.10;;;7.40;99.90;;;;;;5051002;28;20179;-86
2021/04/12 00:17:38;;;;;;;0.57;0.10;;;7.30;99.90;;;;;;5060663;28;20495;-85
2021/04/12 00:20:25;;;;;;;0.60;0.10;;;7.40;99.90;;;;;;5054373;28;20512;-85
2021/04/12 00:23:00;;;;;;;0.40;0.00;;;7.30;99.90;;;;;;5061542;28;20262;-85
2021/04/12 00:25:29;;;;;;;0.25;0.10;;;7.20;99.90;;;;;;5058847;28;20042;-86
2021/04/12 00:28:51;;;;;;;0.65;0.10;;;7.20;99.90;;;;;;5063276;28;20575;-85
2021/04/12 00:31:23;;;;;;;0.03;0.00;;;7.00;99.90;;;;;;4997045;28;20118;-85
2021/04/12 00:33:54;;;;;;;0.17;0.00;;;6.90;99.90;;;;;;5076789;28;20035;-86
2021/04/12 00:36:27;;;;;;;0.15;0.00;;;6.80;99.90;;;;;;5070691;28;20044;-85
2021/04/12 00:39:04;;;;;;;0.20;0.00;;;6.70;99.90;;;;;;5057713;28;20162;-86
2021/04/12 00:41:49;;;;;;;0.20;0.00;;;6.70;99.90;;;;;;5051597;28;20086;-86
2021/04/12 00:44:21;;;;;;;0.10;0.00;;;6.70;99.90;;;;;;5055485;28;20037;-86
2021/04/12 00:47:11;;;;;;;0.35;0.10;;;6.60;99.90;;;;;;5069471;28;20033;-86
2021/04/12 00:49:49;;;;;;;0.30;0.05;;;6.60;99.90;;;;;;5051389;28;20415;-86
2021/04/12 00:52:39;;;;;;;0.25;0.00;;;6.60;99.90;;;;;;5088373;28;20469;-86
2021/04/12 00:55:05;;;;;;;0.13;0.00;;;6.60;99.90;;;;;;5066901;28;20685;-87
2021/04/12 00:57:47;;;;;;;0.40;0.10;;;6.60;99.90;;;;;;5070685;28;20119;-87
2021/04/12 01:00:23;;;;;;;0.80;0.20;;;6.50;99.90;;;;;;5063841;28;20070;-86
2021/04/12 01:03:19;;;;;;;0.10;0.00;;;6.40;99.90;;;;;;5067716;28;20627;-87
2021/04/12 01:06:10;;;;;;;0.35;0.10;;;6.40;99.90;;;;;;5059650;28;20032;-86
2021/04/12 01:08:44;;;;;;;0.43;0.10;;;6.20;99.90;;;;;;5071065;28;20040;-88
2021/04/12 01:11:41;;;;;;;0.40;0.10;;;6.30;99.90;;;;;;5058673;28;20048;-88
2021/04/12 01:14:09;;;;;;;1.65;0.20;;;6.20;99.90;;;;;;5071057;28;20055;-88
2021/04/12 01:17:04;;;;;;;0.30;0.10;;;6.00;99.90;;;;;;5066504;28;20054;-87
2021/04/12 01:20:01;;;;;;;0.52;0.15;;;6.10;99.90;;;;;;5071043;28;20028;-86
2021/04/12 01:22:35;;;;;;;0.85;0.10;;;6.10;99.90;;;;;;5089623;28;20272;-87
2021/04/12 01:25:26;;;;;;;0.40;0.10;;;6.00;99.90;;;;;;5068720;28;20404;-87
2021/04/12 01:28:06;;;;;;;0.95;0.15;;;6.40;99.90;;;;;;5073070;28;20059;-85
2021/04/12 01:30:49;;;;;;;1.75;0.30;;;6.00;99.90;;;;;;5074706;28;20039;-87
2021/04/12 01:33:39;;;;;;;3.22;0.25;;;6.00;99.90;;;;;;5074475;28;20039;-86
2021/04/12 01:36:43;;;;;;;1.45;0.17;;;6.10;99.90;;;;;;5056584;28;20044;-85
2021/04/12 01:39:22;;;;;;;1.40;0.20;;;5.80;99.90;;;;;;5037433;28;20032;-85
2021/04/12 01:42:02;;;;;;;0.82;0.10;;;5.90;99.90;;;;;;5054325;28;20037;-84
2021/04/12 01:44:43;;;;;;;0.93;0.10;;;6.00;99.90;;;;;;5071873;28;20023;-85
2021/04/12 01:47:43;;;;;;;2.65;0.30;;;6.10;99.90;;;;;;5067012;28;20040;-86
2021/04/12 01:50:28;;;;;;;0.82;0.28;;;6.00;99.90;;;;;;5038494;28;20044;-85
2021/04/12 01:53:11;;;;;;;1.70;0.38;;;6.00;99.90;;;;;;5088947;28;20598;-85
2021/04/12 01:56:01;;;;;;;3.10;0.43;;;6.00;99.90;;;;;;5092126;28;20054;-84
2021/04/12 01:58:36;;;;;;;5.93;0.30;;;5.80;99.90;;;;;;5057507;28;20595;-85
2021/04/12 02:01:04;;;;;;;2.95;0.63;;;5.70;99.90;;;;;;5073915;28;20556;-84
2021/04/12 02:03:59;;;;;;;2.05;0.43;;;5.50;99.90;;;;;;5090559;28;20479;-84
2021/04/12 02:07:03;;;;;;;0.35;0.10;;;5.60;99.90;;;;;;5071981;28;20071;-84
2021/04/12 02:09:39;;;;;;;0.10;0.00;;;5.30;99.90;;;;;;5053958;28;20067;-84
2021/04/12 02:12:26;;;;;;;0.57;0.00;;;5.50;99.90;;;;;;5034839;28;20924;-85
2021/04/12 02:15:14;;;;;;;0.63;0.10;;;5.50;99.90;;;;;;5035341;28;20087;-85
2021/04/12 02:17:49;;;;;;;0.85;0.20;;;5.40;99.90;;;;;;5044210;28;20029;-85
2021/04/12 02:20:53;;;;;;;1.05;0.10;;;5.30;99.90;;;;;;5046077;28;20131;-86
2021/04/12 02:23:40;;;;;;;0.73;0.10;;;5.20;99.90;;;;;;5011821;28;20394;-85
2021/04/12 02:26:40;;;;;;;0.55;0.10;;;5.00;99.90;;;;;;5033714;28;20041;-85
2021/04/12 02:29:21;;;;;;;1.45;0.10;;;4.90;99.90;;;;;;5049559;28;20036;-85
2021/04/12 02:32:06;;;;;;;0.38;0.10;;;5.00;99.90;;;;;;5066542;28;20123;-84
2021/04/12 02:34:51;;;;;;;0.50;0.20;;;5.10;99.90;;;;;;5034820;28;20037;-83
2021/04/12 02:37:48;;;;;;;1.02;0.10;;;5.00;99.90;;;;;;5057043;28;20043;-84
2021/04/12 02:40:44;;;;;;;0.45;0.20;;;5.10;99.90;;;;;;5077933;28;20060;-83
2021/04/12 02:43:51;;;;;;;1.40;0.17;;;5.00;99.90;;;;;;5041268;28;20458;-85
2021/04/12 02:46:38;;;;;;;0.22;0.00;;;5.00;99.90;;;;;;5033397;28;20041;-84
2021/04/12 02:49:41;;;;;;;0.68;0.10;;;4.70;99.90;;;;;;5046291;28;20037;-83
2021/04/12 02:52:27;;;;;;;0.45;0.10;;;4.60;99.90;;;;;;5016141;28;20045;-82
2021/04/12 02:55:08;;;;;;;0.32;0.00;;;4.50;99.90;;;;;;5050681;28;20051;-83
2021/04/12 02:58:05;;;;;;;0.00;0.00;;;4.40;99.90;;;;;;5042481;28;20390;-83
2021/04/12 03:00:34;;;;;;;1.00;0.10;;;4.40;99.90;;;;;;5062776;28;20037;-84
2021/04/12 03:03:29;;;;;;;0.10;0.00;;;4.30;99.90;;;;;;5033222;28;20061;-83
2021/04/12 03:06:34;;;;;;;0.20;0.10;;;4.20;99.90;;;;;;5040047;28;20046;-84
2021/04/12 03:09:22;;;;;;;0.00;0.00;;;4.40;99.90;;;;;;5041770;28;20496;-82
2021/04/12 03:12:05;;;;;;;0.88;0.08;;;4.30;99.90;;;;;;5052484;28;20129;-83
2021/04/12 03:15:00;;;;;;;1.08;0.10;;;4.20;99.90;;;;;;5051671;28;20035;-82
2021/04/12 03:17:38;;;;;;;0.90;0.10;;;4.20;99.90;;;;;;5056382;28;20032;-83
2021/04/12 03:20:11;;;;;;;0.30;0.00;;;4.30;99.90;;;;;;5070167;28;20036;-82
2021/04/12 03:22:55;;;;;;;0.32;0.17;;;4.30;99.90;;;;;;5052360;28;20039;-83
2021/04/12 03:25:57;;;;;;;0.57;0.00;;;4.30;99.90;;;;;;5070194;28;20047;-83
2021/04/12 03:28:46;;;;;;;1.30;0.20;;;4.20;99.90;;;;;;5070204;28;20032;-82
2021/04/12 03:31:26;;;;;;;1.10;0.20;;;4.30;99.90;;;;;;5077549;28;20045;-82
2021/04/12 03:34:07;;;;;;;0.70;0.10;;;4.40;99.90;;;;;;5070305;28;20046;-82
2021/04/12 03:36:35;;;;;;;0.95;0.20;;;4.50;99.90;;;;;;5084060;28;20048;-83
2021/04/12 03:39:09;;;;;;;2.90;0.22;;;4.50;99.90;;;;;;5071198;28;20103;-83
2021/04/12 03:41:40;;;;;;;0.47;0.20;;;4.50;99.90;;;;;;5081390;28;20043;-83
2021/04/12 03:44:33;;;;;;;0.68;0.32;;;4.60;99.90;;;;;;5083201;28;20108;-83
2021/04/12 03:47:27;;;;;;;0.77;0.20;;;4.50;99.90;;;;;;5076795;28;20111;-83
2021/04/12 03:50:01;;;;;;;3.55;0.20;;;4.50;99.90;;;;;;5069592;28;20100;-83
2021/04/12 03:52:39;;;;;;;1.33;0.30;;;4.40;99.90;;;;;;5085229;28;20032;-83
2021/04/12 03:55:20;;;;;;;0.82;0.20;;;4.30;99.90;;;;;;5086692;28;20032;-83
2021/04/12 03:58:21;;;;;;;2.15;0.30;;;4.40;99.90;;;;;;5089978;28;20093;-83
2021/04/12 04:01:31;;;;;;;1.52;0.32;;;4.30;99.90;;;;;;5028592;28;20041;-83
2021/04/12 04:04:15;;;;;;;1.85;0.20;;;4.20;99.90;;;;;;5047498;28;20049;-83
2021/04/12 04:07:01;;;;;;;1.42;0.20;;;4.10;99.90;;;;;;5062669;28;20409;-82
2021/04/12 04:10:00;;;;;;;0.45;0.10;;;4.00;99.90;;;;;;5089690;28;20069;-83
2021/04/12 04:13:03;;;;;;;0.90;0.28;;;3.90;99.90;;;;;;5052069;28;20040;-83
2021/04/12 04:15:57;;;;;;;0.75;0.10;;;4.00;99.90;;;;;;5069964;28;20076;-83
2021/04/12 04:18:33;;;;;;;1.27;0.10;;;3.90;99.90;;;;;;5069975;28;20767;-83
2021/04/12 04:21:13;;;;;;;1.70;0.10;;;4.00;99.90;;;;;;5070437;28;20039;-82
2021/04/12 04:23:57;;;;;;;0.00;0.00;;;3.90;99.90;;;;;;5055204;28;20028;-83
2021/04/12 04:26:38;;;;;;;1.38;0.20;;;3.80;99.90;;;;;;5061714;28;20029;-83
2021/04/12 04:29:41;;;;;;;0.57;0.13;;;3.80;99.90;;;;;;5063387;28;20380;-82
2021/04/12 04:32:13;;;;;;;0.63;0.03;;;3.90;99.90;;;;;;5074768;28;20064;-83
2021/04/12 04:34:53;;;;;;;1.90;0.10;;;3.90;99.90;;;;;;5060980;28;20035;-83
2021/04/12 04:37:33;;;;;;;0.85;0.10;;;3.90;99.90;;;;;;5053031;28;20460;-83
2021/04/12 04:40:04;;;;;;;0.47;0.10;;;3.90;99.90;;;;;;5069369;28;20031;-84
2021/04/12 04:43:07;;;;;;;1.27;0.25;;;3.90;99.90;;;;;;5068986;28;20033;-84
2021/04/12 04:45:49;;;;;;;1.08;0.20;;;3.90;99.90;;;;;;5056585;28;20040;-85
2021/04/12 04:48:59;;;;;;;0.90;0.20;;;3.90;99.90;;;;;;5062422;28;20038;-85
2021/04/12 04:51:55;;;;;;;0.55;0.25;;;4.00;99.90;;;;;;4958071;28;20082;-84
2021/04/12 04:54:35;;;;;;;2.75;0.30;;;3.90;99.90;;;;;;5085828;28;20047;-84
2021/04/12 04:57:10;;;;;;;1.63;0.55;;;3.90;99.90;;;;;;5086122;28;20043;-85
2021/04/12 05:00:13;;;;;;;1.90;0.40;;;3.80;99.90;;;;;;5062706;28;20040;-84
2021/04/12 05:02:46;;;;;;;2.50;0.50;;;3.80;99.90;;;;;;5082605;28;20067;-84
2021/04/12 05:05:35;;;;;;;1.67;0.70;;;3.90;99.90;;;;;;5063550;28;20127;-84
2021/04/12 05:08:24;;;;;;;1.10;0.40;;;3.90;99.90;;;;;;5071925;28;20056;-84
2021/04/12 05:10:59;;;;;;;1.90;0.70;;;4.00;99.90;;;;;;5073996;28;20135;-84
2021/04/12 05:13:43;;;;;;;3.25;0.90;;;4.00;99.90;;;;;;5089148;28;20136;-84
2021/04/12 05:16:09;;;;;;;4.30;1.10;;;4.00;99.90;;;;;;5075363;28;20107;-84
2021/04/12 05:19:02;;;;;;;3.40;1.63;;;4.10;99.90;;;;;;5093145;28;20099;-85
2021/04/12 05:21:53;;;;;;;2.85;0.90;;;4.10;99.90;;;;;;5092723;28;20032;-84
2021/04/12 05:24:31;;;;;;;2.47;0.93;;;4.00;99.90;;;;;;5089070;28;20028;-84
2021/04/12 05:27:06;;;;;;;4.35;1.58;;;3.90;99.90;;;;;;5059957;28;20077;-84
2021/04/12 05:30:09;;;;;;;3.85;1.30;;;4.00;99.90;;;;;;5074969;28;20066;-84
2021/04/12 05:33:06;;;;;;;3.15;1.42;;;4.00;99.90;;;;;;5073778;28;20039;-84
2021/04/12 05:36:09;;;;;;;3.67;0.98;;;4.10;99.90;;;;;;5074221;28;20047;-84
2021/04/12 05:38:53;;;;;;;;;;;3.90;99.90;;;;;;5074087;28;20043;-84
2021/04/12 05:41:45;;;;;;;3.35;1.00;;;3.80;99.90;;;;;;5073995;28;19916;-84
2021/04/12 05:44:12;;;;;;;3.05;0.90;;;3.90;99.90;;;;;;5054227;28;20104;-86
2021/04/12 05:47:16;;;;;;;2.53;0.93;;;3.90;99.90;;;;;;5070367;28;20058;-86
2021/04/12 05:49:47;;;;;;;2.65;0.80;;;3.90;99.90;;;;;;5079570;28;20044;-85
2021/04/12 05:52:29;;;;;;;2.53;1.00;;;3.90;99.90;;;;;;5083539;28;20380;-85
2021/04/12 05:55:13;;;;;;;5.88;0.75;;;3.90;99.90;;;;;;5071057;28;20151;-85
2021/04/12 05:57:58;;;;;;;6.07;1.25;;;3.90;99.90;;;;;;5082415;28;20028;-86
2021/04/12 06:00:29;;;;;;;6.05;0.95;;;3.90;99.90;;;;;;5068727;28;20032;-86
2021/04/12 06:03:15;;;;;;;8.20;0.85;;;4.00;99.90;;;;;;5073422;28;20055;-85
2021/04/12 06:06:18;;;;;;;7.57;0.90;;;4.00;99.90;;;;;;5058834;28;20046;-84
2021/04/12 06:08:44;;;;;;;;;;;4.10;99.90;;;;;;5058242;28;20028;-86
2021/04/12 06:11:35;;;;;;;3.90;0.77;;;4.10;99.90;;;;;;5068969;28;19927;-86
2021/04/12 06:14:21;;;;;;;5.05;0.82;;;4.10;99.90;;;;;;5057367;28;20036;-86
2021/04/12 06:17:12;;;;;;;3.60;1.00;;;4.20;99.90;;;;;;5055343;28;20408;-83
2021/04/12 06:19:55;;;;;;;3.70;1.27;;;4.30;99.90;;;;;;5063791;28;20078;-83
2021/04/12 06:22:59;;;;;;;4.07;1.10;;;4.30;99.90;;;;;;5067743;28;20024;-84
2021/04/12 06:25:54;;;;;;;6.63;1.25;;;4.30;99.90;;;;;;5077630;28;20043;-84
2021/04/12 06:28:38;;;;;;;4.25;0.73;;;4.40;99.90;;;;;;5067057;28;20066;-85
2021/04/12 06:31:26;;;;;;;5.03;1.40;;;4.30;99.90;;;;;;5064172;28;20611;-84
2021/04/12 06:34:07;;;;;;;6.30;1.17;;;4.60;99.90;;;;;;5068710;28;20047;-84
2021/04/12 06:37:03;;;;;;;3.10;1.20;;;4.70;99.90;;;;;;5065103;28;20039;-85
2021/04/12 06:39:47;;;;;;;4.70;1.80;;;4.80;99.90;;;;;;5066772;28;20532;-85
2021/04/12 06:42:47;;;;;;;4.18;1.58;;;4.80;99.90;;;;;;5089790;28;20549;-85
2021/04/12 06:45:27;;;;;;;4.15;1.83;;;4.80;99.90;;;;;;5067460;28;20032;-84
2021/04/12 06:48:14;;;;;;;3.28;1.20;;;4.80;99.90;;;;;;5082205;28;20032;-84
2021/04/12 06:50:55;;;;;;;4.03;1.63;;;4.60;99.90;;;;;;5064330;28;20840;-85
2021/04/12 06:54:13;;;;;;;5.15;1.45;;;4.70;99.90;;;;;;5069054;28;20031;-85
2021/04/12 06:56:44;;;;;;;2.72;1.10;;;4.70;99.90;;;;;;5063810;28;20041;-85
2021/04/12 06:59:30;;;;;;;2.90;0.95;;;4.70;99.90;;;;;;5064231;28;20024;-85
2021/04/12 07:02:27;;;;;;;2.30;0.80;;;4.70;99.90;;;;;;5070386;28;20039;-85
2021/04/12 07:05:23;;;;;;;2.92;0.80;;;4.80;99.90;;;;;;5071931;28;20028;-85
2021/04/12 07:08:20;;;;;;;1.85;0.85;;;4.80;99.90;;;;;;5064902;28;20119;-83
2021/04/12 07:11:07;;;;;;;3.58;0.55;;;4.70;99.90;;;;;;5059914;28;20051;-84
2021/04/12 07:13:44;;;;;;;2.92;0.50;;;4.90;99.90;;;;;;5062396;28;20028;-84
2021/04/12 07:16:33;;;;;;;3.08;0.73;;;4.90;99.90;;;;;;5062662;28;20044;-85
2021/04/12 07:19:22;;;;;;;4.03;0.65;;;5.00;99.90;;;;;;5073962;28;20112;-84
2021/04/12 07:22:11;;;;;;;3.95;1.70;;;5.10;99.90;;;;;;5021312;28;20127;-83
2021/04/12 07:25:10;;;;;;;2.00;0.70;;;5.10;99.90;;;;;;5076624;28;20043;-82
2021/04/12 07:28:09;;;;;;;3.03;0.68;;;5.10;99.90;;;;;;5066033;28;20028;-86
2021/04/12 07:31:00;;;;;;;3.55;0.80;;;5.10;99.90;;;;;;5061445;28;20040;-85
2021/04/12 07:34:23;;;;;;;4.75;1.13;;;5.10;99.90;;;;;;5070058;28;20923;-86
2021/04/12 07:37:36;;;;;;;2.85;0.82;;;5.20;99.90;;;;;;4993744;28;20033;-85
2021/04/12 07:40:26;;;;;;;1.65;0.40;;;5.20;99.90;;;;;;4918281;28;20043;-85
2021/04/12 07:43:20;;;;;;;2.55;0.50;;;5.20;99.90;;;;;;5051896;28;20508;-85
2021/04/12 07:46:10;;;;;;;2.05;0.40;;;5.20;99.90;;;;;;5061328;28;20036;-85
2021/04/12 07:49:04;;;;;;;1.02;0.40;;;5.20;99.90;;;;;;5065326;28;20147;-85
2021/04/12 07:51:57;;;;;;;1.60;0.50;;;5.20;99.90;;;;;;5054340;28;20044;-85
2021/04/12 07:54:58;;;;;;;3.38;0.50;;;5.20;99.90;;;;;;5064229;28;20219;-85
2021/04/12 07:57:56;;;;;;;1.65;0.30;;;5.20;99.90;;;;;;5021951;28;20369;-84
2021/04/12 08:00:43;;;;;;;0.77;0.30;;;5.20;99.90;;;;;;5065065;28;20477;-84
2021/04/12 08:03:43;;;;;;;1.92;0.40;;;5.40;99.90;;;;;;5078579;28;20476;-84
2021/04/12 08:06:39;;;;;;;1.45;0.40;;;5.30;99.90;;;;;;5058959;28;20074;-84
2021/04/12 08:09:27;;;;;;;2.08;0.40;;;5.30;99.90;;;;;;5058194;28;20115;-85
2021/04/12 08:12:37;;;;;;;1.25;0.30;;;5.60;99.90;;;;;;5062466;28;20163;-83
2021/04/12 08:15:37;;;;;;;1.10;0.30;;;5.60;99.90;;;;;;5075948;28;20020;-85
2021/04/12 08:18:41;;;;;;;3.25;0.60;;;5.80;99.90;;;;;;5078480;28;20730;-84
2021/04/12 08:21:37;;;;;;;1.33;0.30;;;6.00;99.90;;;;;;5064972;28;20028;-85
2021/04/12 08:24:37;;;;;;;0.93;0.30;;;6.00;99.90;;;;;;5079184;28;20024;-86
2021/04/12 08:27:08;;;;;;;0.65;0.30;;;6.00;99.90;;;;;;5062724;28;20032;-85
2021/04/12 08:30:13;;;;;;;0.80;0.20;;;5.90;99.90;;;;;;5059872;28;20044;-85
2021/04/12 08:33:03;;;;;;;1.45;0.40;;;6.10;99.90;;;;;;5073524;28;20064;-85
2021/04/12 08:35:31;;;;;;;1.20;0.30;;;6.40;99.90;;;;;;5078957;28;20071;-84
2021/04/12 08:38:20;;;;;;;1.80;0.35;;;6.40;99.90;;;;;;5057637;28;20102;-84
2021/04/12 08:40:46;;;;;;;0.98;0.30;;;6.40;99.90;;;;;;5084589;28;20039;-85
2021/04/12 08:43:40;;;;;;;1.27;0.40;;;6.50;99.90;;;;;;5069325;28;20032;-85
2021/04/12 08:46:24;;;;;;;1.23;0.30;;;6.70;99.90;;;;;;5087340;28;20135;-84
2021/04/12 08:49:04;;;;;;;3.13;0.75;;;6.50;99.90;;;;;;5068700;28;20123;-85
2021/04/12 08:51:39;;;;;;;1.63;0.45;;;6.60;99.90;;;;;;5058488;28;20028;-85
2021/04/12 08:54:24;;;;;;;1.27;0.30;;;6.70;99.90;;;;;;5089926;28;20049;-85
2021/04/12 08:57:40;;;;;;;0.80;0.52;;;6.80;99.90;;;;;;5064197;28;20123;-86
2021/04/12 09:00:43;;;;;;;0.65;0.20;;;6.70;99.90;;;;;;5034510;28;20081;-85
2021/04/12 09:03:59;;;;;;;1.25;0.30;;;6.60;99.90;;;;;;5070840;28;20376;-84
2021/04/12 09:06:56;;;;;;;1.63;0.40;;;6.70;99.90;;;;;;5064279;28;20461;-85
2021/04/12 09:10:10;;;;;;;1.15;0.30;;;7.10;99.90;;;;;;5037421;28;20190;-85
2021/04/12 09:13:01;;;;;;;1.20;0.30;;;7.20;99.90;;;;;;5063578;28;20044;-85
2021/04/12 09:15:30;;;;;;;2.28;0.30;;;7.30;99.90;;;;;;5083173;28;20040;-85
2021/04/12 09:18:14;;;;;;;1.13;0.20;;;7.40;99.90;;;;;;5062140;28;20143;-84
2021/04/12 09:21:04;;;;;;;0.65;0.10;;;7.10;99.90;;;;;;5066958;28;20033;-85
2021/04/12 09:23:51;;;;;;;0.90;0.20;;;7.30;99.90;;;;;;5070477;28;20024;-85
2021/04/12 09:26:26;;;;;;;0.60;0.20;;;7.60;99.90;;;;;;5073043;28;20127;-85
2021/04/12 09:29:29;;;;;;;1.98;0.30;;;7.60;99.90;;;;;;5069553;28;20459;-86
2021/04/12 09:32:11;;;;;;;2.25;0.30;;;7.80;99.90;;;;;;5059795;28;20064;-86
2021/04/12 09:35:03;;;;;;;1.75;0.38;;;7.70;99.90;;;;;;5073933;28;20123;-84
2021/04/12 09:38:13;;;;;;;1.30;0.30;;;7.80;99.90;;;;;;5086938;28;20060;-84
2021/04/12 09:40:49;;;;;;;2.80;0.50;;;7.90;99.90;;;;;;5018830;28;20042;-84
2021/04/12 09:43:33;;;;;;;0.63;0.20;;;8.20;99.90;;;;;;5060449;28;20456;-85
2021/04/12 09:46:24;;;;;;;1.15;0.30;;;8.40;99.90;;;;;;5082551;28;20070;-84
2021/04/12 09:49:14;;;;;;;1.50;0.30;;;8.40;99.90;;;;;;5073282;28;20028;-85
2021/04/12 09:51:43;;;;;;;0.85;0.20;;;8.40;99.90;;;;;;5086660;28;20067;-84
2021/04/12 09:54:18;;;;;;;1.20;0.25;;;8.00;99.90;;;;;;5083981;28;20095;-84
2021/04/12 09:57:38;;;;;;;4.40;0.40;;;8.30;99.90;;;;;;5061454;28;20044;-84
2021/04/12 10:00:03;;;;;;;1.00;0.20;;;8.40;99.90;;;;;;5086175;28;20082;-85
2021/04/12 10:02:58;;;;;;;0.50;0.20;;;8.40;99.90;;;;;;5084689;28;20485;-86
2021/04/12 10:05:41;;;;;;;1.75;0.30;;;8.30;99.90;;;;;;5067909;28;20033;-85
2021/04/12 10:08:35;;;;;;;1.42;0.30;;;8.00;99.90;;;;;;5068423;28;20051;-86
2021/04/12 10:11:15;;;;;;;1.38;0.20;;;8.40;99.90;;;;;;5064722;28;20824;-86
2021/04/12 10:14:02;;;;;;;1.17;0.17;;;8.50;99.90;;;;;;5085945;28;20094;-85
2021/04/12 10:16:32;;;;;;;1.92;0.30;;;8.40;99.90;;;;;;5072109;28;20070;-85
2021/04/12 10:19:13;;;;;;;0.60;0.20;;;8.60;99.90;;;;;;5068279;28;20094;-85
2021/04/12 10:22:00;;;;;;;1.60;0.10;;;8.70;99.90;;;;;;5072433;28;20073;-84
2021/04/12 10:24:33;;;;;;;1.52;0.20;;;8.80;99.90;;;;;;5058258;28;20052;-85
2021/04/12 10:27:17;;;;;;;1.08;0.30;;;9.00;99.90;;;;;;5077423;28;20131;-84
2021/04/12 10:29:52;;;;;;;0.77;0.20;;;8.60;99.90;;;;;;5087048;28;20057;-85
2021/04/12 10:32:26;;;;;;;0.65;0.10;;;8.30;99.90;;;;;;5067154;28;20025;-86
2021/04/12 10:35:00;;;;;;;0.88;0.20;;;8.30;99.90;;;;;;5081309;28;20042;-85
2021/04/12 10:37:31;;;;;;;1.08;0.20;;;8.10;99.90;;;;;;5061166;28;20089;-86
2021/04/12 10:40:07;;;;;;;3.20;0.30;;;8.40;99.90;;;;;;5078274;28;20036;-87
2021/04/12 10:43:06;;;;;;;1.67;0.15;;;8.70;99.90;;;;;;5061891;28;20111;-86
2021/04/12 10:45:37;;;;;;;0.82;0.20;;;9.00;99.90;;;;;;5043474;28;20056;-86
2021/04/12 10:48:24;;;;;;;1.40;0.30;;;9.40;99.90;;;;;;5052546;28;20400;-84
2021/04/12 10:51:05;;;;;;;0.47;0.20;;;9.30;99.90;;;;;;5085302;28;20078;-85
2021/04/12 10:54:00;;;;;;;0.52;0.20;;;8.80;99.90;;;;;;5067257;28;20119;-85
2021/04/12 10:56:45;;;;;;;2.38;0.10;;;8.70;99.90;;;;;;4993896;28;20657;-84
2021/04/12 10:59:37;;;;;;;0.45;0.20;;;8.90;99.90;;;;;;5053425;28;20420;-85
2021/04/12 11:02:29;;;;;;;2.38;0.20;;;9.00;99.90;;;;;;5069779;28;20405;-86
2021/04/12 11:05:06;;;;;;;1.38;0.20;;;9.20;99.90;;;;;;5063928;28;20032;-81
2021/04/12 11:07:53;;;;;;;0.47;0.20;;;9.30;99.90;;;;;;5065606;28;20043;-84
2021/04/12 11:10:58;;;;;;;0.40;0.10;;;9.20;99.90;;;;;;5057047;28;20044;-85
2021/04/12 11:13:44;;;;;;;0.73;0.20;;;9.10;99.90;;;;;;5052220;28;20047;-84
2021/04/12 11:16:18;;;;;;;0.57;0.20;;;9.30;99.90;;;;;;5063011;28;20409;-84
2021/04/12 11:19:29;;;;;;;0.88;0.30;;;9.80;99.90;;;;;;5060953;28;20032;-85
2021/04/12 11:22:13;;;;;;;1.92;0.22;;;9.90;99.90;;;;;;5007331;28;20558;-82
2021/04/12 11:25:06;;;;;;;0.30;0.20;;;9.60;99.90;;;;;;5074221;28;20071;-81
2021/04/12 11:28:02;;;;;;;3.25;0.20;;;9.40;99.90;;;;;;5075178;28;20961;-81
2021/04/12 11:30:42;;;;;;;0.80;0.20;;;9.20;99.90;;;;;;5083765;28;20043;-81
2021/04/12 11:33:20;;;;;;;2.20;0.30;;;9.50;99.90;;;;;;5081683;28;20043;-83
2021/04/12 11:36:14;;;;;;;0.43;0.20;;;9.90;99.90;;;;;;5079776;28;20139;-83
2021/04/12 11:39:20;;;;;;;1.52;0.47;;;10.00;99.90;;;;;;5079338;28;20119;-83
2021/04/12 11:41:57;;;;;;;0.73;0.25;;;9.80;99.90;;;;;;5043906;28;20071;-83
2021/04/12 11:44:35;;;;;;;0.50;0.20;;;9.60;99.90;;;;;;5062626;28;20476;-84
2021/04/12 11:47:19;;;;;;;0.47;0.20;;;9.60;99.90;;;;;;5079377;28;20114;-83
2021/04/12 11:49:57;;;;;;;3.58;0.43;;;9.60;99.90;;;;;;5078194;28;20036;-83
2021/04/12 11:52:48;;;;;;;1.20;0.40;;;10.10;99.90;;;;;;5066863;28;20032;-84
2021/04/12 11:55:33;;;;;;;0.47;0.20;;;10.20;99.90;;;;;;5080672;28;20491;-83
2021/04/12 11:58:11;;;;;;;2.30;0.60;;;10.60;99.90;;;;;;5064020;28;20059;-84
2021/04/12 12:00:45;;;;;;;1.30;0.17;;;10.80;99.90;;;;;;5079260;28;20036;-84
2021/04/12 12:03:37;;;;;;;0.98;0.20;;;9.90;99.90;;;;;;5067962;28;20035;-84
2021/04/12 12:06:31;;;;;;;1.20;0.20;;;10.50;99.90;;;;;;5077249;28;20123;-85
2021/04/12 12:09:24;;;;;;;0.68;0.20;;;10.70;99.90;;;;;;5069462;28;20365;-85
2021/04/12 12:12:02;;;;;;;2.58;0.22;;;10.50;99.90;;;;;;5072275;28;20048;-85
2021/04/12 12:14:53;;;;;;;2.38;0.20;;;10.60;99.90;;;;;;5052640;28;20063;-85
2021/04/12 12:17:24;;;;;;;1.23;0.20;;;10.70;99.90;;;;;;5045553;28;20036;-84
2021/04/12 12:20:04;;;;;;;0.52;0.20;;;10.50;99.90;;;;;;5052113;28;20059;-84
2021/04/12 12:22:59;;;;;;;0.35;0.20;;;10.80;99.90;;;;;;5048586;28;20024;-85
2021/04/12 12:25:33;;;;;;;0.68;0.20;;;10.40;99.90;;;;;;5036772;28;20052;-84
2021/04/12 12:28:37;;;;;;;1.63;0.40;;;10.50;99.90;;;;;;5063020;28;20039;-84
2021/04/12 12:31:06;;;;;;;0.52;0.20;;;10.80;99.90;;;;;;5066823;28;20029;-82
2021/04/12 12:33:46;;;;;;;4.38;0.40;;;11.00;99.90;;;;;;5064559;28;20031;-84
2021/04/12 12:36:28;;;;;;;1.60;0.40;;;11.20;99.90;;;;;;5050498;28;20043;-83
2021/04/12 12:39:07;;;;;;;0.65;0.20;;;11.00;99.90;;;;;;5050585;28;20033;-84
2021/04/12 12:41:43;;;;;;;1.52;0.55;;;10.90;99.90;;;;;;5053315;28;20067;-84
2021/04/12 12:44:12;;;;;;;1.17;0.30;;;10.90;99.90;;;;;;5039677;28;20036;-83
2021/04/12 12:46:41;;;;;;;0.82;0.20;;;10.80;99.90;;;;;;5034898;28;20037;-83
2021/04/12 12:49:20;;;;;;;4.03;0.55;;;10.60;99.90;;;;;;5052640;28;20033;-83
2021/04/12 12:52:00;;;;;;;1.33;0.22;;;10.60;99.90;;;;;;5056693;28;20028;-83
2021/04/12 12:54:35;;;;;;;6.40;0.40;;;10.40;99.90;;;;;;5059617;28;20029;-83
2021/04/12 12:57:30;;;;;;;2.88;0.50;;;10.10;99.90;;;;;;5059379;28;20120;-84
2021/04/12 13:00:28;;;;;;;1.85;0.50;;;9.70;99.90;;;;;;5041565;28;20056;-83
2021/04/12 13:02:57;;;;;;;4.80;0.40;;;9.50;99.90;;;;;;5004124;28;20076;-82
2021/04/12 13:05:25;;;;;;;2.83;0.32;;;9.80;99.90;;;;;;5057052;28;20033;-83
2021/04/12 13:08:03;;;;;;;2.75;0.70;;;9.30;99.40;;;;;;5032760;28;20058;-83
2021/04/12 13:10:29;;;;;;;3.08;0.30;;;9.10;99.90;;;;;;5042667;28;20393;-83
2021/04/12 13:12:55;;;;;;;2.03;0.73;;;8.80;99.00;;;;;;5084155;28;20043;-82
2021/04/12 13:15:39;;;;;;;2.63;0.57;;;8.50;99.90;;;;;;5079291;28;20044;-83
2021/04/12 13:18:16;;;;;;;2.33;0.70;;;8.30;99.90;;;;;;5068783;28;20031;-83
2021/04/12 13:20:52;;;;;;;1.63;0.45;;;8.60;99.90;;;;;;5086411;28;20043;-83
2021/04/12 13:23:29;;;;;;;1.40;0.60;;;8.40;99.90;;;;;;5074132;28;20027;-83
2021/04/12 13:25:56;;;;;;;2.42;0.45;;;8.70;99.90;;;;;;5085181;28;20047;-83
2021/04/12 13:28:39;;;;;;;2.42;0.95;;;8.60;99.90;;;;;;5070137;28;20044;-82
2021/04/12 13:31:21;;;;;;;2.42;0.43;;;8.50;99.90;;;;;;5084772;28;20039;-83
2021/04/12 13:33:52;;;;;;;2.97;0.85;;;8.50;99.50;;;;;;5086957;28;20027;-83
2021/04/12 13:36:32;;;;;;;3.20;0.30;;;8.40;99.90;;;;;;5071328;28;20039;-83
2021/04/12 13:39:05;;;;;;;1.65;0.40;;;8.00;99.90;;;;;;5063566;28;20504;-82
2021/04/12 13:41:45;;;;;;;2.50;0.40;;;8.00;99.90;;;;;;5083812;28;20029;-83
2021/04/12 13:44:18;;;;;;;4.00;0.30;;;8.20;99.90;;;;;;5084836;28;20023;-83
2021/04/12 13:46:49;;;;;;;1.15;0.40;;;8.00;99.90;;;;;;5083424;28;20079;-79
2021/04/12 13:49:23;;;;;;;1.65;0.45;;;8.10;99.90;;;;;;5084214;28;20484;-79
2021/04/12 13:52:02;;;;;;;0.73;0.30;;;8.00;99.90;;;;;;5080050;28;20601;-79
2021/04/12 13:54:50;;;;;;;0.98;0.30;;;7.80;99.90;;;;;;5091898;28;20032;-79
2021/04/12 13:57:21;;;;;;;2.40;0.57;;;7.80;99.90;;;;;;5086483;28;20036;-79
2021/04/12 13:59:52;;;;;;;2.65;0.60;;;;;;;;;;5075051;28;20078;-79
2021/04/12 14:02:47;;;;;;;1.45;0.50;;;7.60;99.90;;;;;;5067078;28;20036;-79
2021/04/12 14:05:22;;;;;;;1.70;0.50;;;7.70;99.90;;;;;;5079917;28;20090;-79
2021/04/12 14:08:22;;;;;;;1.98;0.50;;;7.70;99.90;;;;;;5084985;28;20054;-79
2021/04/12 14:10:52;;;;;;;1.63;0.60;;;7.80;99.90;;;;;;5079391;28;20131;-79
2021/04/12 14:13:29;;;;;;;6.15;1.05;;;8.00;99.90;;;;;;5087278;28;20122;-79
2021/04/12 14:16:00;;;;;;;1.08;0.50;;;7.70;99.90;;;;;;5078579;28;20048;-79
2021/04/12 14:18:42;;;;;;;2.03;0.70;;;7.80;99.90;;;;;;5082634;28;20032;-79
2021/04/12 14:21:20;;;;;;;2.45;0.75;;;7.80;99.90;;;;;;5087668;28;20054;-80
2021/04/12 14:24:08;;;;;;;2.83;0.80;;;7.80;99.90;;;;;;5080427;28;20031;-79
2021/04/12 14:26:42;;;;;;;5.78;0.73;;;7.60;99.90;;;;;;5078949;28;20382;-79
2021/04/12 14:29:22;;;;;;;2.00;0.90;;;7.50;99.90;;;;;;5086055;28;20075;-79
2021/04/12 14:31:48;;;;;;;2.05;0.90;;;7.40;99.90;;;;;;5087274;28;20046;-79
2021/04/12 14:34:41;;;;;;;2.25;0.63;;;7.10;99.90;;;;;;5081057;28;20032;-79